Time;durP1;ratioP1;P1;durP2;ratioP2;P2;SDS_P1;SDS_P2;PMS_P1;PMS_P2;Temp;Humidity;BMP_temperature;BMP_pressure;BME280_temperature;BME280_humidity;BME280_pressure;Samples;Min_cycle;Max_cycle;Signal;HPM_P1;HPM_P2
2022/03/30 00:00:10;;;;;;;;;34.00;26.33;;;;;16.06;57.05;100196.06;4955395;28;45312;-84
2022/03/30 00:02:36;;;;;;;;;29.67;29.33;;;;;15.63;57.11;100116.75;4973246;28;45657;-85
2022/03/30 00:05:02;;;;;;;;;34.67;30.33;;;;;15.86;56.52;100159.06;5038227;28;45310;-85
2022/03/30 00:07:31;;;;;;;;;31.00;25.00;;;;;15.69;56.71;100122.69;5038063;28;45287;-85
2022/03/30 00:09:57;;;;;;;;;32.33;28.33;;;;;16.07;56.91;100181.63;5016617;28;45404;-85
2022/03/30 00:12:22;;;;;;;;;39.33;32.33;;;;;15.86;56.71;100149.16;4935980;28;45545;-85
2022/03/30 00:14:48;;;;;;;;;38.00;33.67;;;;;15.62;56.38;100109.69;4936894;28;54452;-85
2022/03/30 00:17:13;;;;;;;;;37.67;32.33;;;;;16.07;56.93;100183.47;4936805;28;45418;-85
2022/03/30 00:19:38;;;;;;;;;33.00;28.67;;;;;15.74;56.82;100125.91;4951015;28;45955;-85
2022/03/30 00:22:04;;;;;;;;;32.67;29.00;;;;;16.06;56.68;100170.97;4976345;28;45487;-86
2022/03/30 00:24:29;;;;;;;;;37.33;31.00;;;;;16.03;57.10;100167.53;4975469;28;46155;-85
2022/03/30 00:26:54;;;;;;;;;33.67;28.33;;;;;16.02;57.22;100173.91;4975614;28;50328;-85
2022/03/30 00:29:20;;;;;;;;;31.00;28.00;;;;;15.97;57.08;100159.97;4975714;28;45440;-86
2022/03/30 00:31:45;;;;;;;;;26.67;23.67;;;;;15.96;56.80;100163.59;4975957;28;45449;-85
2022/03/30 00:34:11;;;;;;;;;40.33;32.67;;;;;15.78;57.09;100133.63;4975625;28;46083;-85
2022/03/30 00:36:36;;;;;;;;;46.25;38.00;;;;;16.00;56.82;100175.84;4957943;28;45407;-85
2022/03/30 00:39:02;;;;;;;;;45.50;39.75;;;;;15.99;56.84;100174.13;4975805;28;45434;-85
2022/03/30 00:41:28;;;;;;;;;54.25;41.00;;;;;15.73;56.59;100130.44;4975665;28;45484;-86
2022/03/30 00:43:53;;;;;;;;;47.25;37.75;;;;;15.96;56.76;100154.69;4975498;28;46160;-85
2022/03/30 00:46:19;;;;;;;;;47.00;40.25;;;;;15.43;56.61;100069.09;4973971;28;45381;-85
2022/03/30 00:48:44;;;;;;;;;49.25;36.75;;;;;15.99;56.58;100159.81;4990262;28;45271;-85
2022/03/30 00:51:10;;;;;;;;;44.00;37.25;;;;;15.75;56.48;100123.06;4960813;28;45354;-85
2022/03/30 00:53:35;;;;;;;;;51.75;40.75;;;;;15.67;56.53;100103.13;4955540;28;46495;-85
2022/03/30 00:56:01;;;;;;;;;52.75;42.50;;;;;15.97;56.15;100145.66;4958021;28;45391;-85
2022/03/30 00:58:27;;;;;;;;;51.25;40.00;;;;;15.88;56.61;100136.47;4993623;28;45331;-85
2022/03/30 01:00:52;;;;;;;;;49.50;41.25;;;;;15.96;56.82;100150.16;4995317;27;45495;-85
2022/03/30 01:03:19;;;;;;;;;47.25;40.50;;;;;15.96;56.46;100146.63;4976972;28;47490;-85
2022/03/30 01:05:44;;;;;;;;;54.75;42.75;;;;;15.89;56.67;100126.56;4994721;27;45615;-85
2022/03/30 01:08:10;;;;;;;;;59.25;46.25;;;;;15.73;56.76;100095.50;4995142;28;45334;-85
2022/03/30 01:10:36;;;;;;;;;51.50;42.25;;;;;15.96;56.99;100135.88;4976591;28;45598;-85
2022/03/30 01:13:02;;;;;;;;;53.50;44.00;;;;;15.53;56.71;100050.44;4975080;28;45391;-85
2022/03/30 01:15:27;;;;;;;;;53.25;44.25;;;;;15.97;56.79;100129.53;4974963;28;45432;-84
2022/03/30 01:17:53;;;;;;;;;57.50;45.25;;;;;15.76;56.69;100089.88;4975005;28;45326;-85
2022/03/30 01:20:21;;;;;;;;;56.25;42.50;;;;;15.97;56.39;100121.47;4974381;28;45370;-85
2022/03/30 01:22:47;;;;;;;;;55.25;44.50;;;;;15.96;56.72;100117.06;4956439;28;45501;-85
2022/03/30 01:25:12;;;;;;;;;50.75;41.00;;;;;15.48;56.57;100028.44;4958359;28;45339;-85
2022/03/30 01:27:37;;;;;;;;;54.25;40.75;;;;;15.93;56.96;100118.16;4941071;28;45378;-85
2022/03/30 01:33:02;;;;;;;;;32.25;25.50;;;;;15.73;57.22;100087.44;4958402;28;45394;-85
2022/03/30 01:35:28;;;;;;;;;46.25;38.25;;;;;15.85;56.77;100112.53;4958322;28;45331;-85
2022/03/30 01:37:54;;;;;;;;;49.00;38.75;;;;;15.66;56.88;100080.75;4958385;28;45430;-85
2022/03/30 01:40:19;;;;;;;;;53.25;40.00;;;;;15.83;57.07;100101.03;4941303;28;45445;-85
2022/03/30 01:42:45;;;;;;;;;50.00;41.00;;;;;15.17;57.31;99990.47;4957924;28;45371;-85
2022/03/30 01:45:12;;;;;;;;;45.00;35.75;;;;;15.81;57.12;100093.06;4958188;28;45383;-85
2022/03/30 01:47:40;;;;;;;;;56.25;43.25;;;;;15.33;57.18;100014.34;4958260;28;45391;-85
2022/03/30 01:50:08;;;;;;;;;44.50;38.50;;;;;15.43;57.18;100028.78;4958179;28;45408;-85
2022/03/30 01:52:33;;;;;;;;;53.50;41.00;;;;;15.59;57.19;100063.38;4957840;28;45518;-85
2022/03/30 01:54:58;;;;;;;;;48.50;39.50;;;;;15.45;57.07;100034.88;4958145;28;45378;-84
2022/03/30 01:57:24;;;;;;;;;50.25;40.50;;;;;15.78;57.17;100089.75;4958192;28;45679;-85
2022/03/30 01:59:49;;;;;;;;;52.75;41.75;;;;;15.56;56.89;100051.03;4958109;28;45596;-84
2022/03/30 02:02:15;;;;;;;;;56.50;40.75;;;;;15.28;57.21;100001.25;4959045;28;45483;-85
2022/03/30 02:04:41;;;;;;;;;54.50;41.50;;;;;15.65;57.52;100059.41;4977289;28;45172;-85
2022/03/30 02:07:09;;;;;;;;;49.00;41.25;;;;;15.73;57.04;100071.31;4977366;28;45223;-84
2022/03/30 02:09:35;;;;;;;;;54.25;41.00;;;;;15.67;57.75;100066.38;4977770;28;45527;-84
2022/03/30 02:12:00;;;;;;;;;52.50;40.75;;;;;15.68;57.58;100068.06;4977125;28;45405;-85
2022/03/30 02:14:26;;;;;;;;;50.75;39.00;;;;;15.64;57.71;100069.28;5061746;28;45591;-85
2022/03/30 02:16:52;;;;;;;;;51.50;42.00;;;;;15.38;57.76;100023.78;4977299;28;45514;-85
2022/03/30 02:19:17;;;;;;;;;56.00;41.75;;;;;15.60;57.89;100060.59;4977606;28;45565;-84
2022/03/30 02:21:42;;;;;;;;;53.75;41.75;;;;;15.24;57.90;100005.16;4976799;28;45556;-85
2022/03/30 02:24:08;;;;;;;;;47.00;38.00;;;;;15.41;58.00;100033.41;4977364;28;45326;-85
2022/03/30 02:26:33;;;;;;;;;55.00;42.00;;;;;15.50;58.50;100048.84;4976902;28;45387;-85
2022/03/30 02:28:59;;;;;;;;;50.00;43.00;;;;;14.92;58.72;99959.25;4977437;28;45559;-84
2022/03/30 02:31:24;;;;;;;;;46.00;37.50;;;;;15.20;58.46;100012.56;4977057;28;46197;-85
2022/03/30 02:33:50;;;;;;;;;52.50;41.75;;;;;15.41;58.46;100052.22;4974749;28;45405;-84
2022/03/30 02:36:16;;;;;;;;;50.25;39.75;;;;;15.39;58.75;100046.94;4977395;28;45348;-84
2022/03/30 02:38:43;;;;;;;;;51.75;42.25;;;;;15.37;58.84;100042.66;4977341;28;45534;-85
2022/03/30 02:41:09;;;;;;;;;56.00;45.00;;;;;15.27;58.88;100030.91;4977026;28;46503;-85
2022/03/30 02:43:35;;;;;;;;;47.25;41.00;;;;;15.20;58.92;100022.47;4976841;28;45465;-84
2022/03/30 02:46:00;;;;;;;;;52.75;43.25;;;;;15.31;59.09;100041.31;4977114;28;45450;-85
2022/03/30 02:48:29;;;;;;;;;51.00;40.00;;;;;15.29;59.36;100043.25;4977416;28;45515;-84
2022/03/30 02:51:02;;;;;;;;;54.00;40.75;;;;;15.28;59.15;100049.56;4976710;28;45437;-85
2022/03/30 02:53:27;;;;;;;;;53.50;42.50;;;;;14.96;59.09;99996.47;4976902;28;45323;-85
2022/03/30 02:55:53;;;;;;;;;55.25;42.25;;;;;15.25;59.42;100036.41;4976815;28;45323;-85
2022/03/30 02:58:21;;;;;;;;;54.50;42.00;;;;;15.04;59.43;99998.59;4977364;28;45317;-85
2022/03/30 03:00:46;;;;;;;;;56.75;42.25;;;;;15.04;59.58;99993.22;4976755;28;45663;-85
2022/03/30 03:03:12;;;;;;;;;52.25;41.25;;;;;15.26;59.36;100040.78;5029467;28;45286;-85
2022/03/30 03:05:39;;;;;;;;;42.00;34.75;;;;;15.26;59.46;100035.41;5058360;28;45418;-85
2022/03/30 03:08:08;;;;;;;;;52.50;43.50;;;;;15.26;59.60;100038.09;5059673;28;45407;-85
2022/03/30 03:10:38;;;;;;;;;52.75;39.50;;;;;15.27;59.88;100034.47;5058997;28;46365;-85
2022/03/30 03:13:04;;;;;;;;;51.00;43.00;;;;;15.16;59.70;100012.91;5059149;28;45352;-85
2022/03/30 03:15:31;;;;;;;;;51.75;40.50;;;;;15.27;59.97;100022.88;5041623;28;45357;-85
2022/03/30 03:17:57;;;;;;;;;52.25;42.25;;;;;15.22;59.81;100016.97;4959388;28;45414;-84
2022/03/30 03:20:23;;;;;;;;;52.50;39.75;;;;;15.26;59.89;100029.19;4976528;28;45400;-85
2022/03/30 03:22:48;;;;;;;;;57.50;42.25;;;;;15.12;59.99;100004.22;4975959;28;45355;-84
2022/03/30 03:25:14;;;;;;;;;48.75;40.00;;;;;15.27;60.16;100023.72;4976409;28;48317;-84
2022/03/30 03:27:39;;;;;;;;;50.00;40.50;;;;;15.12;59.67;99993.47;4977015;28;45380;-85
2022/03/30 03:30:06;;;;;;;;;47.25;40.50;;;;;15.03;59.75;99972.72;4968554;28;45358;-85
2022/03/30 03:32:31;;;;;;;;;52.00;41.00;;;;;15.29;59.66;100019.09;4956992;28;45387;-85
2022/03/30 03:34:57;;;;;;;;;52.00;39.25;;;;;15.15;59.59;99997.78;4956923;28;45268;-85
2022/03/30 03:37:22;;;;;;;;;49.00;40.50;;;;;14.87;59.77;99951.53;4939935;28;45706;-85
2022/03/30 03:39:47;;;;;;;;;51.75;40.00;;;;;15.27;59.65;100015.66;4956874;28;46017;-85
2022/03/30 03:42:13;;;;;;;;;54.00;41.00;;;;;15.26;59.92;100013.94;4956551;28;45375;-85
2022/03/30 03:44:39;;;;;;;;;51.00;42.25;;;;;15.26;59.83;100005.03;4962022;28;45430;-85
2022/03/30 03:47:07;;;;;;;;;51.75;41.00;;;;;15.26;59.71;100007.72;4965449;28;45622;-85
2022/03/30 03:49:33;;;;;;;;;51.50;41.25;;;;;15.25;59.95;100006.84;4978335;27;47432;-85
2022/03/30 03:51:58;;;;;;;;;57.75;41.50;;;;;15.10;60.03;99978.47;4964096;28;45330;-86
2022/03/30 03:54:23;;;;;;;;;55.25;41.50;;;;;15.26;59.96;100008.56;4972459;28;45318;-85
2022/03/30 03:56:49;;;;;;;;;49.75;40.50;;;;;14.96;60.21;99956.22;4957380;28;45416;-85
2022/03/30 03:59:14;;;;;;;;;51.50;40.75;;;;;15.12;59.93;99981.91;4966061;28;51773;-85
2022/03/30 04:01:39;;;;;;;;;51.25;39.75;;;;;15.18;59.88;99989.50;4962553;28;45382;-86
2022/03/30 04:04:06;;;;;;;;;53.00;40.00;;;;;15.07;59.97;99970.66;4972291;28;45264;-85
2022/03/30 04:06:32;;;;;;;;;50.50;39.50;;;;;15.23;59.83;100008.81;4972360;28;45381;-84
2022/03/30 04:08:57;;;;;;;;;44.25;37.75;;;;;15.03;59.80;99971.84;4939654;28;47141;-84
2022/03/30 04:11:23;;;;;;;;;52.00;41.50;;;;;15.09;59.53;99984.81;4956437;28;45485;-84
2022/03/30 04:13:49;;;;;;;;;50.25;39.25;;;;;15.09;59.83;99988.34;4956040;28;45386;-84
2022/03/30 04:16:16;;;;;;;;;53.75;44.00;;;;;15.17;60.01;100001.19;4985223;27;45470;-83
2022/03/30 04:18:42;;;;;;;;;50.50;40.50;;;;;15.14;59.85;99998.75;4975403;28;46137;-83
2022/03/30 04:21:07;;;;;;;;;71.00;55.50;;;;;15.01;59.88;99960.38;4973776;28;45398;-82
2022/03/30 04:23:32;;;;;;;;;69.25;51.75;;;;;15.16;59.82;99988.75;4973954;28;45318;-83
2022/03/30 04:25:58;;;;;;;;;55.50;44.00;;;;;15.14;60.17;99986.19;4974128;28;45481;-82
2022/03/30 04:28:23;;;;;;;;;51.50;40.75;;;;;15.14;60.04;99985.31;4964337;28;46942;-83
2022/03/30 04:30:49;;;;;;;;;21.50;17.25;;;;;15.06;60.25;99974.31;4966770;28;45411;-83
2022/03/30 04:33:14;;;;;;;;;56.50;43.50;;;;;15.12;60.01;99985.44;4966946;28;45502;-82
2022/03/30 04:35:39;;;;;;;;;55.25;41.75;;;;;14.65;59.74;99906.66;4965712;28;45315;-82
2022/03/30 04:38:08;;;;;;;;;53.25;41.25;;;;;15.10;60.21;99982.03;4970380;28;46619;-83
2022/03/30 04:40:33;;;;;;;;;48.75;41.00;;;;;15.10;60.01;99986.53;4972351;28;45411;-83
2022/03/30 04:42:59;;;;;;;;;56.00;44.50;;;;;15.04;60.50;99974.44;4972766;28;45521;-82
2022/03/30 04:45:25;;;;;;;;;54.50;42.50;;;;;14.89;60.78;99952.28;4965604;28;45553;-82
2022/03/30 04:47:54;;;;;;;;;52.25;41.50;;;;;15.06;60.76;99969.81;4960395;28;46223;-83
2022/03/30 04:50:21;;;;;;;;;55.00;43.25;;;;;14.96;60.80;99956.22;5006334;27;45378;-83
2022/03/30 04:52:47;;;;;;;;;56.50;43.00;;;;;14.97;60.88;99955.25;4984865;28;45326;-84
2022/03/30 04:55:12;;;;;;;;;54.00;43.50;;;;;15.07;61.15;99965.28;4963447;28;45430;-84
2022/03/30 04:57:38;;;;;;;;;55.50;42.50;;;;;15.11;61.50;99969.47;4983784;28;45423;-85
2022/03/30 05:00:08;;;;;;;;;55.25;42.75;;;;;15.12;61.40;99968.47;4978201;28;45285;-84
2022/03/30 05:02:34;;;;;;;;;53.00;42.25;;;;;15.12;61.21;99968.47;4975992;28;46572;-83
2022/03/30 05:04:59;;;;;;;;;57.00;44.25;;;;;14.99;61.36;99939.88;4966589;28;45317;-84
2022/03/30 05:07:24;;;;;;;;;55.75;43.25;;;;;15.09;61.25;99952.63;4974291;28;46805;-84
2022/03/30 05:09:51;;;;;;;;;56.25;43.25;;;;;14.94;61.83;99928.66;4974133;28;45548;-84
2022/03/30 05:12:17;;;;;;;;;55.50;45.00;;;;;15.16;62.16;99959.22;4976382;28;45480;-84
2022/03/30 05:14:42;;;;;;;;;52.50;41.75;;;;;15.18;62.35;99962.66;4977913;28;45364;-84
2022/03/30 05:17:08;;;;;;;;;56.00;45.75;;;;;15.05;62.79;99945.75;4977773;28;45491;-83
2022/03/30 05:19:34;;;;;;;;;55.50;44.50;;;;;15.01;63.02;99938.91;4968321;28;45311;-84
2022/03/30 05:22:00;;;;;;;;;59.25;45.50;;;;;14.98;62.51;99930.13;4977262;28;45378;-83
2022/03/30 05:24:25;;;;;;;;;55.50;44.25;;;;;15.13;63.06;99949.59;4962032;28;45364;-84
2022/03/30 05:26:53;;;;;;;;;59.00;43.75;;;;;15.06;62.61;99945.66;4958163;28;46674;-84
2022/03/30 05:29:18;;;;;;;;;57.75;43.75;;;;;15.01;62.72;99934.41;4958477;28;45433;-83
2022/03/30 05:31:45;;;;;;;;;55.75;43.00;;;;;15.08;63.62;99948.22;4958489;28;45993;-89
2022/03/30 05:34:10;;;;;;;;;59.25;46.00;;;;;15.18;63.16;99960.81;4975676;28;45547;-89
2022/03/30 05:36:42;;;;;;;;;57.75;47.25;;;;;15.18;63.29;99963.50;4997495;28;45818;-88
2022/03/30 05:39:08;;;;;;;;;57.75;46.00;;;;;15.07;63.23;99949.19;4975472;28;45539;-90
2022/03/30 05:41:34;;;;;;;;;54.75;42.25;;;;;15.20;63.46;99971.47;4977477;28;45989;-82
2022/03/30 05:44:00;;;;;;;;;56.75;44.25;;;;;15.14;64.16;99961.16;4968522;28;45630;-79
2022/03/30 05:46:26;;;;;;;;;52.25;41.75;;;;;15.20;64.42;99974.16;4996475;28;45500;-81
2022/03/30 05:48:51;;;;;;;;;55.00;46.25;;;;;15.19;64.03;99967.03;4971788;28;45507;-83
2022/03/30 05:51:16;;;;;;;;;60.00;46.75;;;;;15.19;64.31;99967.03;4967019;28;45410;-81
2022/03/30 05:53:42;;;;;;;;;58.00;43.25;;;;;15.16;64.51;99968.13;4973999;28;45537;-81
2022/03/30 05:56:07;;;;;;;;;60.50;48.00;;;;;14.99;65.14;99939.88;4969024;28;46512;-82
2022/03/30 05:58:32;;;;;;;;;57.50;47.25;;;;;15.19;65.48;99967.94;4960392;28;45627;-82
2022/03/30 06:00:58;;;;;;;;;58.00;46.25;;;;;15.01;65.21;99945.16;4974955;28;45530;-84
2022/03/30 06:03:23;;;;;;;;;58.50;46.75;;;;;15.03;64.55;99942.31;4975587;28;45489;-85
2022/03/30 06:05:50;;;;;;;;;48.50;39.25;;;;;15.04;64.57;99947.59;4960493;28;46348;-86
2022/03/30 06:08:16;;;;;;;;;54.25;44.75;;;;;15.13;65.08;99962.16;4964713;28;45479;-85
2022/03/30 06:10:41;;;;;;;;;61.25;48.50;;;;;15.04;64.74;99944.06;4944795;28;45477;-86
2022/03/30 06:13:07;;;;;;;;;58.50;46.25;;;;;15.14;65.49;99972.75;4961252;28;45399;-86
2022/03/30 06:15:33;;;;;;;;;61.25;46.50;;;;;15.05;65.01;99957.34;4969897;28;46479;-87
2022/03/30 06:17:58;;;;;;;;;56.25;45.50;;;;;15.25;64.45;99993.44;4947127;28;45539;-87
2022/03/30 06:20:25;;;;;;;;;61.75;47.75;;;;;15.24;64.60;99989.06;4982021;27;45354;-86
2022/03/30 06:22:52;;;;;;;;;56.25;46.00;;;;;14.88;64.42;99926.41;4970560;28;45290;-89
2022/03/30 06:25:22;;;;;;;;;57.75;47.25;;;;;15.06;63.80;99963.59;4972083;28;47139;-89
2022/03/30 06:27:48;;;;;;;;;56.25;45.00;;;;;14.89;64.29;99933.50;4974549;28;45474;-90
2022/03/30 06:30:14;;;;;;;;;60.25;47.50;;;;;15.03;64.14;99955.75;4973423;28;45320;-89
2022/03/30 06:32:40;;;;;;;;;54.25;42.50;;;;;14.93;63.74;99940.34;4961622;28;45616;-91
2022/03/30 06:35:06;;;;;;;;;60.50;47.00;;;;;15.29;63.78;99997.63;4984378;28;47280;-87
2022/03/30 06:37:31;;;;;;;;;59.00;46.75;;;;;15.31;64.71;99997.47;4945667;28;45760;-87
2022/03/30 06:39:57;;;;;;;;;55.75;46.25;;;;;14.48;63.44;99850.72;4964715;28;45450;-87
2022/03/30 06:42:22;;;;;;;;;100.50;80.50;;;;;14.65;64.30;99887.88;4959531;28;45412;-86
2022/03/30 06:44:48;;;;;;;;;192.00;164.50;;;;;15.00;64.11;99943.41;4965381;28;45651;-84
2022/03/30 06:47:13;;;;;;;;;57.25;44.50;;;;;14.99;63.83;99941.72;4970371;28;45354;-88
2022/03/30 06:49:39;;;;;;;;;65.75;47.75;;;;;14.88;63.99;99921.03;4969128;28;45394;-86
2022/03/30 06:52:06;;;;;;;;;51.75;42.50;;;;;14.99;64.33;99955.13;4945530;28;45707;-85
2022/03/30 06:54:31;;;;;;;;;55.50;45.50;;;;;14.89;63.96;99936.19;4967198;28;46411;-85
2022/03/30 06:56:59;;;;;;;;;56.00;46.75;;;;;15.21;63.98;99981.22;4966486;28;45447;-86
2022/03/30 06:59:25;;;;;;;;;59.00;46.50;;;;;15.32;64.11;100004.56;4940969;28;45403;-86
2022/03/30 07:01:51;;;;;;;;;57.50;44.00;;;;;15.02;63.88;99954.06;4962362;28;45508;-87
2022/03/30 07:04:17;;;;;;;;;55.00;44.75;;;;;14.79;63.97;99908.31;4999694;28;48046;-86
2022/03/30 07:10:14;;;;;;;;;57.25;45.00;;;;;14.64;63.89;99886.19;4972141;28;45391;-86
2022/03/30 07:12:12;;;;;;;;;61.25;47.00;;;;;15.23;63.42;99991.84;4970521;28;45508;-86
2022/03/30 07:14:37;;;;;;;;;55.50;44.25;;;;;15.24;63.49;99991.75;4961812;28;46199;-88
2022/03/30 07:17:03;;;;;;;;;58.25;44.50;;;;;15.08;63.37;99957.13;4944866;28;45924;-87
2022/03/30 07:19:29;;;;;;;;;57.75;47.50;;;;;15.10;63.57;99965.94;4944176;28;45395;-86
2022/03/30 07:21:54;;;;;;;;;59.50;48.00;;;;;14.98;64.05;99940.00;4974852;27;45369;-86
2022/03/30 07:24:19;;;;;;;;;60.75;47.50;;;;;15.34;63.80;100003.50;4960882;28;46050;-86
2022/03/30 07:26:45;;;;;;;;;64.00;47.75;;;;;14.73;64.66;99906.13;4945699;28;59551;-87
2022/03/30 07:29:10;;;;;;;;;60.50;47.25;;;;;15.02;64.38;99946.84;4946684;28;45401;-86
2022/03/30 07:31:35;;;;;;;;;58.00;47.00;;;;;14.63;65.12;99886.28;4964035;28;45462;-86
2022/03/30 07:34:01;;;;;;;;;55.50;45.25;;;;;15.06;65.11;99955.53;4967261;28;51329;-87
2022/03/30 07:36:26;;;;;;;;;64.75;47.75;;;;;15.00;64.89;99943.41;4947897;28;45635;-85
2022/03/30 07:38:52;;;;;;;;;59.75;44.25;;;;;15.27;65.40;99983.44;4950173;28;45342;-84
2022/03/30 07:41:17;;;;;;;;;58.25;45.50;;;;;15.22;65.17;99985.63;4950152;28;45631;-85
2022/03/30 07:43:43;;;;;;;;;56.00;43.75;;;;;15.03;65.00;99951.25;4956896;28;47785;-92
2022/03/30 07:46:11;;;;;;;;;60.25;45.50;;;;;15.30;65.29;99995.78;4957059;28;45509;-83
2022/03/30 07:48:36;;;;;;;;;56.50;45.00;;;;;15.07;65.65;99976.88;4971905;28;45471;-83
2022/03/30 07:51:02;;;;;;;;;58.00;46.50;;;;;15.26;66.07;99996.97;4980987;28;45752;-83
2022/03/30 07:53:28;;;;;;;;;59.00;47.50;;;;;15.19;66.36;99997.47;4970285;28;46309;-83
2022/03/30 07:55:55;;;;;;;;;56.50;46.00;;;;;15.24;66.79;99997.09;4961324;28;45586;-83
2022/03/30 07:58:21;;;;;;;;;56.75;46.00;;;;;15.06;66.43;99969.81;4968337;28;45426;-83
2022/03/30 08:00:47;;;;;;;;;56.25;45.75;;;;;14.68;67.16;99909.13;4962395;28;45531;-82
2022/03/30 08:03:12;;;;;;;;;61.50;48.50;;;;;15.21;67.67;99991.94;4969999;28;45467;-83
2022/03/30 08:05:38;;;;;;;;;59.75;44.50;;;;;15.09;67.83;99974.94;4965809;28;45482;-83
2022/03/30 08:08:06;;;;;;;;;78.75;63.00;;;;;15.20;68.50;100001.84;4963367;28;45419;-83
2022/03/30 08:10:33;;;;;;;;;63.25;49.00;;;;;15.19;68.07;100001.94;4969156;28;45512;-83
2022/03/30 08:12:58;;;;;;;;;57.75;44.75;;;;;15.12;67.89;99977.38;4970613;28;46168;-82
2022/03/30 08:15:24;;;;;;;;;61.50;46.25;;;;;15.22;67.71;99995.47;4965865;28;45437;-82
2022/03/30 08:17:51;;;;;;;;;57.50;45.75;;;;;15.15;67.82;99987.06;4973572;28;45255;-82
2022/03/30 08:23:01;;;;;;;;;61.75;47.25;;;;;14.96;67.74;99961.59;4969454;28;45432;-83
2022/03/30 08:25:26;;;;;;;;;59.00;47.25;;;;;14.97;67.32;99967.81;4959598;28;45454;-81
2022/03/30 08:27:52;;;;;;;;;60.50;47.75;;;;;14.70;67.19;99922.41;4949218;28;45418;-82
2022/03/30 08:30:17;;;;;;;;;57.75;45.75;;;;;14.89;67.43;99965.72;4961188;28;45340;-83
2022/03/30 08:32:42;;;;;;;;;60.25;47.75;;;;;14.72;67.17;99928.53;4967027;28;46977;-82
2022/03/30 08:35:10;;;;;;;;;61.75;48.25;;;;;14.68;67.25;99922.56;4964124;28;45426;-87
2022/03/30 08:37:36;;;;;;;;;64.00;49.75;;;;;14.50;71.15;99897.91;4965329;28;45437;-89
2022/03/30 08:40:02;;;;;;;;;62.50;47.50;;;;;15.11;68.23;99990.94;5003759;28;45395;-89
2022/03/30 08:42:28;;;;;;;;;66.75;50.00;;;;;14.28;67.09;99865.59;4967518;28;45465;-87
2022/03/30 08:44:53;;;;;;;;;60.00;48.75;;;;;14.88;67.55;99949.72;4947919;28;45569;-89
2022/03/30 08:47:19;;;;;;;;;59.50;46.50;;;;;14.55;67.81;99895.75;4967556;28;45444;-88
2022/03/30 08:49:47;;;;;;;;;62.75;48.50;;;;;14.96;67.47;99956.22;4963101;28;45539;-89
2022/03/30 08:52:13;;;;;;;;;62.50;47.75;;;;;14.90;66.85;99948.63;4967369;28;47374;-89
2022/03/30 08:54:44;;;;;;;;;59.50;48.50;;;;;15.21;67.52;100000.00;4961974;28;45325;-88
2022/03/30 08:57:11;;;;;;;;;61.50;49.50;;;;;14.96;66.82;99956.22;4963852;28;45292;-88
2022/03/30 08:59:36;;;;;;;;;64.25;47.25;;;;;14.98;66.22;99956.09;4963981;28;45329;-89
2022/03/30 09:02:02;;;;;;;;;62.50;47.25;;;;;14.75;66.80;99921.13;4954429;28;48240;-89
2022/03/30 09:04:27;;;;;;;;;64.00;48.50;;;;;15.19;66.27;99989.41;4964572;28;45713;-89
2022/03/30 09:06:55;;;;;;;;;61.50;47.25;;;;;14.70;66.20;99895.59;4962704;28;45360;-88
2022/03/30 09:09:31;;;;;;;;;63.50;49.00;;;;;15.31;66.56;99989.41;4968675;28;45478;-86
2022/03/30 09:11:57;;;;;;;;;64.00;48.50;;;;;14.94;67.10;99925.97;4951833;28;48282;-88
2022/03/30 09:14:28;;;;;;;;;78.25;61.75;;;;;15.09;66.76;99945.41;4944027;28;45860;-88
2022/03/30 09:16:59;;;;;;;;;62.50;49.50;;;;;15.27;66.35;99964.66;4972068;28;45341;-88
2022/03/30 09:19:26;;;;;;;;;61.75;49.75;;;;;15.12;66.01;99941.63;4969415;28;45575;-88
2022/03/30 09:21:57;;;;;;;;;58.25;47.00;;;;;15.44;66.35;99968.72;4954461;28;47365;-87
2022/03/30 09:24:43;;;;;;;;;57.00;46.25;;;;;15.46;66.75;99963.25;4961605;28;45473;-87
2022/03/30 09:27:09;;;;;;;;;56.25;45.75;;;;;15.72;66.89;99998.88;4963805;28;45418;-87
2022/03/30 09:29:37;;;;;;;;;61.25;49.75;;;;;15.79;66.72;99990.22;4967349;28;45446;-87
2022/03/30 09:32:07;;;;;;;;;61.75;48.25;;;;;15.87;65.85;99991.44;4950110;28;47020;-88
2022/03/30 09:34:35;;;;;;;;;63.25;49.25;;;;;15.66;65.39;99943.75;4967623;28;45393;-88
2022/03/30 09:37:02;;;;;;;;;61.25;48.25;;;;;15.37;65.25;99895.84;4957307;28;45486;-90
2022/03/30 09:39:36;;;;;;;;;60.25;47.25;;;;;15.83;65.05;99947.84;4948707;28;45596;-88
2022/03/30 09:42:05;;;;;;;;;59.25;47.75;;;;;16.16;64.08;99992.72;4966726;28;45674;-89
2022/03/30 09:44:43;;;;;;;;;60.00;48.00;;;;;15.70;63.61;99904.97;4971857;28;45746;-87
2022/03/30 09:47:08;;;;;;;;;62.25;48.00;;;;;15.75;63.77;99905.44;4966460;28;45448;-86
2022/03/30 09:49:37;;;;;;;;;66.00;50.00;;;;;16.40;62.93;99991.75;4968843;28;45352;-87
2022/03/30 09:52:23;;;;;;;;;64.50;48.25;;;;;15.66;62.81;99840.81;4964899;28;48472;-87
2022/03/30 09:54:59;;;;;;;;;63.50;48.75;;;;;16.14;61.34;99908.63;4968549;28;45468;-86
2022/03/30 09:57:26;;;;;;;;;60.50;46.25;;;;;16.36;62.49;99948.09;4967314;28;45838;-87
2022/03/30 10:00:00;;;;;;;;;62.50;48.50;;;;;16.23;62.44;99915.97;4961544;28;45431;-86
2022/03/30 10:02:39;;;;;;;;;64.75;50.25;;;;;16.46;62.90;99930.25;4981526;28;47145;-88
2022/03/30 10:05:07;;;;;;;;;66.75;50.00;;;;;16.83;61.41;99973.00;4973358;28;45996;-87
2022/03/30 10:07:33;;;;;;;;;66.25;50.00;;;;;16.85;61.10;99970.16;4965709;28;45488;-87
2022/03/30 10:10:00;;;;;;;;;62.00;46.75;;;;;16.85;60.17;99975.56;4960840;28;45419;-87
2022/03/30 10:12:26;;;;;;;;;53.00;45.75;;;;;16.92;59.85;99971.38;4951639;28;47178;-87
2022/03/30 10:14:54;;;;;;;;;64.75;48.75;;;;;16.03;59.30;99811.88;4952200;28;45437;-87
2022/03/30 10:17:20;;;;;;;;;62.75;47.25;;;;;16.59;58.22;99884.34;4964405;28;45481;-88
2022/03/30 10:19:46;;;;;;;;;57.50;44.75;;;;;17.11;58.75;99968.00;4982759;28;45328;-86
2022/03/30 10:22:49;;;;;;;;;55.00;45.00;;;;;17.20;58.53;99966.38;4971924;28;46368;-87
2022/03/30 10:25:32;;;;;;;;;54.75;43.75;;;;;17.23;57.78;99968.81;4972483;28;45470;-86
2022/03/30 10:28:23;;;;;;;;;57.75;45.00;;;;;17.17;58.06;99963.97;4976235;28;45528;-92
2022/03/30 10:30:57;;;;;;;;;57.00;42.75;;;;;16.97;59.03;99942.22;4951059;28;45770;-88
2022/03/30 10:33:39;;;;;;;;;56.00;46.50;;;;;17.13;58.85;99965.19;4982425;28;46858;-87
2022/03/30 10:36:22;;;;;;;;;56.25;43.75;;;;;16.84;58.69;99915.50;4966968;28;45319;-88
2022/03/30 10:39:15;;;;;;;;;56.75;46.75;;;;;17.14;58.67;99951.59;4969944;28;45546;-90
2022/03/30 10:42:04;;;;;;;;;56.50;46.50;;;;;17.42;57.80;99955.53;4962215;28;45578;-90
2022/03/30 10:44:45;;;;;;;;;56.75;46.75;;;;;16.77;56.95;99813.84;4963888;28;48350;-89
2022/03/30 10:47:15;;;;;;;;;51.00;40.25;;;;;17.42;57.60;99915.09;4945265;28;45472;-88
2022/03/30 10:49:46;;;;;;;;;57.00;45.00;;;;;17.64;57.94;99945.59;4968296;28;45607;-84
2022/03/30 10:52:40;;;;;;;;;56.25;44.25;;;;;17.72;56.64;99943.06;4969720;28;45466;-92
2022/03/30 10:55:15;;;;;;;;;109.75;97.00;;;;;18.02;56.39;99930.66;4956614;28;46363;-93
2022/03/30 10:57:50;;;;;;;;;57.50;44.25;;;;;18.25;55.30;99929.47;4956525;28;45533;-90
2022/03/30 11:00:36;;;;;;;;;59.50;46.25;;;;;18.55;54.32;99935.81;4956750;28;45532;-91
2022/03/30 11:03:10;;;;;;;;;52.00;41.25;;;;;18.82;52.88;99927.06;4971853;28;45622;-89
2022/03/30 11:05:37;;;;;;;;;56.75;45.00;;;;;19.02;53.73;99927.94;4997352;28;46054;-92
2022/03/30 11:08:05;;;;;;;;;57.25;44.25;;;;;18.65;52.35;99836.81;4996418;28;45437;-88
2022/03/30 11:10:45;;;;;;;;;47.50;37.50;;;;;19.45;51.14;99917.69;4979587;28;45266;-93
2022/03/30 11:13:11;;;;;;;;;49.00;39.25;;;;;19.16;49.51;99856.44;4973899;28;45681;-93
2022/03/30 11:16:07;;;;;;;;;54.50;42.25;;;;;19.69;49.33;99909.13;4975765;28;47360;-87
2022/03/30 11:18:33;;;;;;;;;49.50;41.75;;;;;19.74;48.96;99905.00;4976570;28;45227;-87
2022/03/30 11:21:16;;;;;;;;;56.00;44.25;;;;;19.81;49.59;99914.22;4958952;28;45508;-87
2022/03/30 11:24:10;;;;;;;;;48.00;40.50;;;;;19.47;49.96;99843.56;4975596;28;45404;-86